createdAt,value
2019-04-19T00:01:02.707Z,6.80
2019-04-19T00:03:32.167Z,6.76
2019-04-19T00:06:13.764Z,6.71
2019-04-19T00:08:49.481Z,6.69
2019-04-19T00:11:15.572Z,6.63
2019-04-19T00:13:36.773Z,6.60
2019-04-19T00:16:06.684Z,6.57
2019-04-19T00:18:36.980Z,6.54
2019-04-19T00:21:24.912Z,6.53
2019-04-19T00:23:40.572Z,6.53
2019-04-19T00:26:06.222Z,6.51
2019-04-19T00:28:43.791Z,6.51
2019-04-19T00:31:21.363Z,6.49
2019-04-19T00:33:42.599Z,6.45
2019-04-19T00:36:07.428Z,6.43
2019-04-19T00:38:47.001Z,6.40
2019-04-19T00:41:28.225Z,6.37
2019-04-19T00:44:02.633Z,6.34
2019-04-19T00:46:34.020Z,6.32
2019-04-19T00:49:05.535Z,6.27
2019-04-19T00:51:35.551Z,6.22
2019-04-19T00:53:59.844Z,6.13
2019-04-19T00:56:31.235Z,6.13
2019-04-19T00:58:56.650Z,6.09
2019-04-19T01:01:23.179Z,6.04
2019-04-19T01:03:52.175Z,6.04
2019-04-19T01:06:21.922Z,5.95
2019-04-19T01:08:59.278Z,5.95
2019-04-19T01:11:32.919Z,5.96
2019-04-19T01:14:06.157Z,5.94
2019-04-19T01:16:31.245Z,5.91
2019-04-19T01:18:58.936Z,5.84
2019-04-19T01:21:21.900Z,5.86
2019-04-19T01:23:53.999Z,5.83
2019-04-19T01:26:21.523Z,5.77
2019-04-19T01:28:56.051Z,5.77
2019-04-19T01:31:25.534Z,5.72
2019-04-19T01:33:50.786Z,5.72
2019-04-19T01:36:28.879Z,5.67
2019-04-19T01:38:58.019Z,5.63
2019-04-19T01:41:33.597Z,5.58
2019-04-19T01:44:06.631Z,5.61
2019-04-19T01:46:56.313Z,5.60
2019-04-19T01:49:29.902Z,5.60
2019-04-19T01:52:13.447Z,5.59
2019-04-19T01:54:38.398Z,5.58
2019-04-19T01:56:58.217Z,5.55
2019-04-19T01:59:24.830Z,5.55
2019-04-19T02:02:00.462Z,5.46
2019-04-19T02:04:26.907Z,5.47
2019-04-19T02:06:54.789Z,5.43
2019-04-19T02:09:32.706Z,5.39
2019-04-19T02:12:13.297Z,5.41
2019-04-19T02:14:37.592Z,5.38
2019-04-19T02:17:02.550Z,5.38
2019-04-19T02:19:29.729Z,5.36
2019-04-19T02:22:02.100Z,5.34
2019-04-19T02:24:35.183Z,5.33
2019-04-19T02:27:03.397Z,5.33
2019-04-19T02:29:31.674Z,5.33
2019-04-19T02:47:38.384Z,5.15
2019-04-19T02:49:58.057Z,5.13
2019-04-19T02:52:33.271Z,5.11
2019-04-19T03:02:53.288Z,4.96
2019-04-19T03:05:23.014Z,4.87
2019-04-19T03:07:26.607Z,4.82
2019-04-19T03:09:55.677Z,4.82
2019-04-19T03:12:47.196Z,4.79
2019-04-19T03:15:09.806Z,4.75
2019-04-19T03:17:44.529Z,4.76
2019-04-19T03:20:15.245Z,4.72
2019-04-19T03:22:39.452Z,4.72
2019-04-19T03:25:15.208Z,4.72
2019-04-19T03:27:40.723Z,4.69
2019-04-19T03:30:14.352Z,4.67
2019-04-19T03:35:21.945Z,4.63
2019-04-19T03:37:50.002Z,4.61
2019-04-19T03:42:49.326Z,4.55
2019-04-19T03:45:19.082Z,4.51
2019-04-19T03:47:54.806Z,4.46
2019-04-19T03:50:20.014Z,4.43
2019-04-19T03:52:49.084Z,4.39
2019-04-19T03:55:20.302Z,4.36
2019-04-19T03:57:42.456Z,4.33
2019-04-19T04:00:02.871Z,4.30
2019-04-19T04:02:36.901Z,4.28
2019-04-19T04:05:05.992Z,4.24
2019-04-19T04:07:33.642Z,4.24
2019-04-19T04:10:04.965Z,4.23
2019-04-19T04:12:47.389Z,4.22
2019-04-19T04:15:19.703Z,4.24
2019-04-19T04:17:39.545Z,4.23
2019-04-19T04:20:09.395Z,4.26
2019-04-19T04:22:41.749Z,4.29
2019-04-19T04:25:16.382Z,4.32
2019-04-19T04:27:51.396Z,4.36
2019-04-19T04:30:17.512Z,4.40
2019-04-19T04:32:52.826Z,4.46
2019-04-19T04:35:24.302Z,4.52
2019-04-19T04:37:51.450Z,4.60
2019-04-19T04:40:10.949Z,4.71
2019-04-19T04:42:47.566Z,4.85
2019-04-19T04:45:27.930Z,4.85
2019-04-19T04:48:10.035Z,4.97
2019-04-19T04:51:01.771Z,5.05
2019-04-19T04:53:24.324Z,5.07
2019-04-19T04:55:58.154Z,5.23
2019-04-19T04:58:30.378Z,5.23
2019-04-19T05:01:01.472Z,5.38
2019-04-19T05:03:45.569Z,5.43
2019-04-19T05:06:20.012Z,5.43
2019-04-19T05:08:47.433Z,5.46
2019-04-19T05:11:16.569Z,5.51
2019-04-19T05:13:47.036Z,5.55
2019-04-19T05:16:25.195Z,5.55
2019-04-19T05:18:48.386Z,5.66
2019-04-19T05:21:19.150Z,5.66
2019-04-19T05:23:47.718Z,5.71
2019-04-19T05:26:29.207Z,5.72
2019-04-19T05:28:43.964Z,5.84
2019-04-19T05:31:03.326Z,5.84
2019-04-19T05:33:45.290Z,5.86
2019-04-19T05:36:18.202Z,6.00
2019-04-19T05:39:08.060Z,6.00
2019-04-19T05:41:29.963Z,6.06
2019-04-19T05:44:30.394Z,6.13
2019-04-19T05:46:54.560Z,6.23
2019-04-19T05:49:21.923Z,6.33
2019-04-19T05:52:06.191Z,6.40
2019-04-19T05:54:11.556Z,6.51
2019-04-19T05:56:46.006Z,6.62
2019-04-19T05:59:14.704Z,6.74
2019-04-19T06:01:57.881Z,6.85
2019-04-19T06:04:29.022Z,6.95
2019-04-19T06:06:56.603Z,7.04
2019-04-19T06:09:09.435Z,7.15
2019-04-19T06:11:41.278Z,7.26
2019-04-19T06:14:32.234Z,7.38
2019-04-19T06:16:55.126Z,7.50
2019-04-19T06:19:28.985Z,7.63
2019-04-19T06:21:53.143Z,7.75
2019-04-19T06:24:33.956Z,7.88
2019-04-19T06:27:13.311Z,8.01
2019-04-19T06:29:38.493Z,8.13
2019-04-19T06:32:07.431Z,8.29
2019-04-19T06:34:31.426Z,8.43
2019-04-19T06:36:55.008Z,8.60
2019-04-19T06:39:14.171Z,8.75
2019-04-19T06:41:50.314Z,8.90
2019-04-19T06:44:33.564Z,9.05
2019-04-19T06:46:58.484Z,9.23
2019-04-19T06:49:21.192Z,9.39
2019-04-19T06:51:52.607Z,9.56
2019-04-19T06:54:15.503Z,9.72
2019-04-19T06:56:53.717Z,9.89
2019-04-19T06:59:24.919Z,10.05
2019-04-19T07:01:49.708Z,10.22
2019-04-19T07:04:14.925Z,10.41
2019-04-19T07:07:07.934Z,10.62
2019-04-19T07:09:48.617Z,10.81
2019-04-19T07:12:06.724Z,11.01
2019-04-19T07:14:21.380Z,11.18
2019-04-19T07:17:07.305Z,11.35
2019-04-19T07:19:35.085Z,11.51
2019-04-19T07:22:05.161Z,11.67
2019-04-19T07:24:40.447Z,11.82
2019-04-19T07:27:05.938Z,11.95
2019-04-19T07:29:18.801Z,12.10
2019-04-19T07:31:47.431Z,12.25
2019-04-19T07:34:35.048Z,12.40
2019-04-19T07:37:04.947Z,12.52
2019-04-19T07:39:43.265Z,12.62
2019-04-19T07:42:15.728Z,12.75
2019-04-19T07:44:28.587Z,12.87
2019-04-19T07:47:16.308Z,12.98
2019-04-19T07:49:41.567Z,13.13
2019-04-19T07:52:14.023Z,13.26
2019-04-19T07:54:35.590Z,13.39
2019-04-19T07:57:37.313Z,13.50
2019-04-19T08:00:00.633Z,13.59
2019-04-19T08:02:36.024Z,13.71
2019-04-19T08:07:41.407Z,13.92
2019-04-19T08:12:31.674Z,14.13
2019-04-19T08:29:48.559Z,14.77
2019-04-19T08:32:09.378Z,14.85
2019-04-19T08:34:39.480Z,14.94
2019-04-19T08:37:18.383Z,15.03
2019-04-19T08:39:56.770Z,15.09
2019-04-19T08:42:32.023Z,15.17
2019-04-19T08:44:49.317Z,15.24
2019-04-19T08:47:35.588Z,15.33
2019-04-19T08:50:05.743Z,15.42
2019-04-19T08:52:35.488Z,15.54
2019-04-19T08:55:26.315Z,15.65
2019-04-19T08:57:34.752Z,15.76
2019-04-19T09:00:37.182Z,15.88
2019-04-19T09:02:50.356Z,15.99
2019-04-19T09:05:22.261Z,16.13
2019-04-19T09:07:59.721Z,16.27
2019-04-19T09:10:41.516Z,16.39
2019-04-19T09:13:06.792Z,16.52
2019-04-19T09:15:24.080Z,16.61
2019-04-19T09:20:34.081Z,16.82
2019-04-19T09:23:05.029Z,16.92
2019-04-19T09:25:42.042Z,17.03
2019-04-19T09:28:31.275Z,17.15
2019-04-19T09:30:49.150Z,17.26
2019-04-19T09:33:09.795Z,17.38
2019-04-19T09:35:38.607Z,17.49
2019-04-19T09:38:14.963Z,17.58
2019-04-19T09:40:44.532Z,17.68
2019-04-19T09:43:19.759Z,17.77
2019-04-19T09:45:36.265Z,17.86
2019-04-19T09:48:05.445Z,17.96
2019-04-19T09:50:52.358Z,18.05
2019-04-19T09:53:31.671Z,18.15
2019-04-19T09:55:55.500Z,18.25
2019-04-19T09:58:26.407Z,18.34
2019-04-19T10:00:36.776Z,18.42
2019-04-19T10:03:20.453Z,18.52
2019-04-19T10:05:36.849Z,18.62
2019-04-19T10:08:05.998Z,18.72
2019-04-19T10:10:34.766Z,18.83
2019-04-19T10:13:03.584Z,18.92
2019-04-19T10:15:36.434Z,19.00
2019-04-19T10:18:05.063Z,19.05
2019-04-19T10:20:54.639Z,19.11
2019-04-19T10:23:23.414Z,19.20
2019-04-19T10:25:57.866Z,19.28
2019-04-19T10:28:25.287Z,19.33
2019-04-19T10:30:58.960Z,19.41
2019-04-19T10:33:36.900Z,19.50
2019-04-19T10:35:57.780Z,19.58
2019-04-19T10:38:27.469Z,19.63
2019-04-19T10:40:56.130Z,19.68
2019-04-19T10:43:25.284Z,19.75
2019-04-19T10:45:54.205Z,19.83
2019-04-19T10:48:23.070Z,19.90
2019-04-19T10:50:55.051Z,19.97
2019-04-19T10:53:24.126Z,20.00
2019-04-19T10:55:54.402Z,20.02
2019-04-19T10:58:23.243Z,20.05
2019-04-19T11:00:51.972Z,20.10
2019-04-19T11:03:21.053Z,20.12
2019-04-19T11:05:50.400Z,20.13
2019-04-19T11:08:20.366Z,20.14
2019-04-19T11:10:49.613Z,20.13
2019-04-19T11:13:24.503Z,20.15
2019-04-19T11:15:48.682Z,20.18
2019-04-19T11:18:17.434Z,20.22
2019-04-19T11:20:49.628Z,20.24
2019-04-19T11:23:17.572Z,20.25
2019-04-19T11:25:47.694Z,20.27
2019-04-19T11:28:18.835Z,20.32
2019-04-19T11:30:49.153Z,20.38
2019-04-19T11:33:25.606Z,20.40
2019-04-19T11:35:55.476Z,20.42
2019-04-19T11:38:25.039Z,20.44
2019-04-19T11:40:55.266Z,20.44
2019-04-19T11:43:25.151Z,20.44
2019-04-19T11:45:53.957Z,20.44
2019-04-19T11:48:22.785Z,20.44
2019-04-19T11:50:51.878Z,20.43
2019-04-19T11:53:25.027Z,20.43
2019-04-19T11:55:56.212Z,20.44
2019-04-19T11:58:24.805Z,20.46
2019-04-19T12:00:58.489Z,20.50
2019-04-19T12:03:27.944Z,20.55
2019-04-19T12:05:56.669Z,20.58
2019-04-19T12:08:26.616Z,20.59
2019-04-19T12:10:56.587Z,20.57
2019-04-19T12:13:27.441Z,20.54
2019-04-19T12:15:56.843Z,20.52
2019-04-19T12:18:26.343Z,20.52
2019-04-19T12:20:55.454Z,20.55
2019-04-19T12:23:25.446Z,20.56
2019-04-19T12:25:55.506Z,20.58
2019-04-19T12:28:24.270Z,20.60
2019-04-19T12:30:57.055Z,20.61
2019-04-19T12:33:24.425Z,20.61
2019-04-19T12:35:53.080Z,20.60
2019-04-19T12:38:21.955Z,20.56
2019-04-19T12:40:52.415Z,20.55
2019-04-19T12:43:22.185Z,20.50
2019-04-19T12:45:52.519Z,20.49
2019-04-19T12:48:21.754Z,20.46
2019-04-19T12:50:51.478Z,20.38
2019-04-19T12:53:21.030Z,20.33
2019-04-19T12:55:50.188Z,20.28
2019-04-19T12:58:19.969Z,20.25
2019-04-19T13:00:56.291Z,20.22
2019-04-19T13:03:44.441Z,20.19
2019-04-19T13:06:27.376Z,20.18
2019-04-19T13:08:57.167Z,20.18
2019-04-19T13:11:27.245Z,20.14
2019-04-19T13:13:55.983Z,20.16
2019-04-19T13:16:24.645Z,20.17
2019-04-19T13:18:54.222Z,20.16
2019-04-19T13:21:24.143Z,20.16
2019-04-19T13:23:52.869Z,20.15
2019-04-19T13:26:21.459Z,20.14
2019-04-19T13:28:51.257Z,20.09
2019-04-19T13:31:21.069Z,20.06
2019-04-19T13:33:49.591Z,20.05
2019-04-19T13:36:22.188Z,20.01
2019-04-19T13:38:59.307Z,19.95
2019-04-19T13:41:48.792Z,19.88
2019-04-19T13:44:18.691Z,19.82
2019-04-19T13:46:48.585Z,19.75
2019-04-19T13:49:17.347Z,19.69
2019-04-19T13:51:46.135Z,19.63
2019-04-19T13:54:14.763Z,19.59
2019-04-19T13:56:47.276Z,19.55
2019-04-19T13:59:16.043Z,19.51
2019-04-19T14:01:44.566Z,19.47
2019-04-19T14:04:13.556Z,19.43
2019-04-19T14:06:42.380Z,19.40
2019-04-19T14:09:13.432Z,19.35
2019-04-19T14:11:42.847Z,19.33
2019-04-19T14:14:12.085Z,19.31
2019-04-19T14:16:41.896Z,19.28
2019-04-19T14:19:11.759Z,19.26
2019-04-19T14:21:40.824Z,19.21
2019-04-19T14:24:09.446Z,19.18
2019-04-19T14:26:45.072Z,19.16
2019-04-19T14:29:09.502Z,19.15
2019-04-19T14:31:39.938Z,19.17
2019-04-19T14:34:09.018Z,19.19
2019-04-19T14:36:38.073Z,19.18
2019-04-19T14:39:08.905Z,19.15
2019-04-19T14:41:38.021Z,19.13
2019-04-19T14:44:07.226Z,19.10
2019-04-19T14:46:36.697Z,19.06
2019-04-19T14:49:05.367Z,19.02
2019-04-19T14:51:37.036Z,19.00
2019-04-19T14:54:04.736Z,18.94
2019-04-19T14:56:34.057Z,18.89
2019-04-19T14:59:02.683Z,18.83
2019-04-19T15:01:49.350Z,18.75
2019-04-19T15:04:26.659Z,18.72
2019-04-19T15:06:55.653Z,18.66
2019-04-19T15:09:24.174Z,18.62
2019-04-19T15:11:52.750Z,18.60
2019-04-19T15:14:22.128Z,18.58
2019-04-19T15:16:51.988Z,18.55
2019-04-19T15:19:20.904Z,18.48
2019-04-19T15:21:50.082Z,18.40
2019-04-19T15:24:18.811Z,18.33
2019-04-19T15:26:47.461Z,18.30
2019-04-19T15:29:16.763Z,18.26
2019-04-19T15:31:46.216Z,18.23
2019-04-19T15:34:15.632Z,18.18
2019-04-19T15:36:44.246Z,18.12
2019-04-19T15:39:13.677Z,18.06
2019-04-19T15:41:42.275Z,18.02
2019-04-19T15:44:10.830Z,17.97
2019-04-19T15:46:39.732Z,17.95
2019-04-19T15:49:08.316Z,17.91
2019-04-19T15:51:39.709Z,17.86
2019-04-19T15:54:08.111Z,17.80
2019-04-19T15:56:36.708Z,17.74
2019-04-19T15:59:05.393Z,17.70
2019-04-19T16:01:53.873Z,17.64
2019-04-19T16:04:40.154Z,17.57
2019-04-19T16:07:10.379Z,17.50
2019-04-19T16:10:02.995Z,17.46
2019-04-19T16:12:27.254Z,17.43
2019-04-19T16:14:55.774Z,17.38
2019-04-19T16:17:25.145Z,17.37
2019-04-19T16:19:53.773Z,17.32
2019-04-19T16:22:22.503Z,17.27
2019-04-19T16:24:51.499Z,17.20
2019-04-19T16:27:20.850Z,17.14
2019-04-19T16:29:54.581Z,17.07
2019-04-19T16:32:21.082Z,17.03
2019-04-19T16:34:49.755Z,17.01
2019-04-19T16:37:18.670Z,16.98
2019-04-19T16:39:48.257Z,16.99
2019-04-19T16:42:16.852Z,17.06
2019-04-19T16:44:45.748Z,17.16
2019-04-19T16:47:15.261Z,17.32
2019-04-19T16:49:44.795Z,17.51
2019-04-19T16:52:13.445Z,17.69
2019-04-19T16:54:41.892Z,17.87
2019-04-19T16:57:16.833Z,17.99
2019-04-19T16:59:41.726Z,18.14
2019-04-19T17:02:11.053Z,18.27
2019-04-19T17:04:40.880Z,18.29
2019-04-19T17:07:09.520Z,18.34
2019-04-19T17:09:38.403Z,18.35
2019-04-19T17:12:07.549Z,18.38
2019-04-19T17:14:36.856Z,18.37
2019-04-19T17:17:07.217Z,18.34
2019-04-19T17:19:55.060Z,18.21
2019-04-19T17:22:26.713Z,18.02
2019-04-19T17:24:55.283Z,17.78
2019-04-19T17:27:27.688Z,17.53
2019-04-19T17:29:54.473Z,17.26
2019-04-19T17:32:23.991Z,16.96
2019-04-19T17:34:54.184Z,16.66
2019-04-19T17:37:24.201Z,16.36
2019-04-19T17:39:52.985Z,16.09
2019-04-19T17:42:22.328Z,15.87
2019-04-19T17:44:51.580Z,15.64
2019-04-19T17:47:24.397Z,15.43
2019-04-19T17:49:51.264Z,15.25
2019-04-19T17:52:26.340Z,15.06
2019-04-19T17:55:05.081Z,14.88
2019-04-19T17:57:21.002Z,14.70
2019-04-19T17:59:50.309Z,14.54
2019-04-19T18:02:19.106Z,14.38
2019-04-19T18:04:48.207Z,14.25
2019-04-19T18:07:16.728Z,14.14
2019-04-19T18:09:48.505Z,14.00
2019-04-19T18:12:15.512Z,13.87
2019-04-19T18:14:43.989Z,13.74
2019-04-19T18:17:12.606Z,13.61
2019-04-19T18:19:43.560Z,13.51
2019-04-19T18:22:20.103Z,13.41
2019-04-19T18:24:50.012Z,13.32
2019-04-19T18:27:18.076Z,13.22
2019-04-19T18:29:42.238Z,13.09
2019-04-19T18:32:25.873Z,12.99
2019-04-19T18:34:55.896Z,12.90
2019-04-19T18:37:29.602Z,12.81
2019-04-19T18:39:54.645Z,12.71
2019-04-19T18:42:23.945Z,12.65
2019-04-19T18:44:56.463Z,12.58
2019-04-19T18:47:22.916Z,12.48
2019-04-19T18:49:51.880Z,12.39
2019-04-19T18:52:33.510Z,12.32
2019-04-19T18:54:59.587Z,12.24
2019-04-19T18:57:22.240Z,12.14
2019-04-19T18:59:55.986Z,12.04
2019-04-19T19:02:24.989Z,11.96
2019-04-19T19:04:54.062Z,11.84
2019-04-19T19:07:25.128Z,11.75
2019-04-19T19:09:54.809Z,11.66
2019-04-19T19:12:22.457Z,11.55
2019-04-19T19:14:57.129Z,11.44
2019-04-19T19:17:22.337Z,11.36
2019-04-19T19:19:54.708Z,11.28
2019-04-19T19:22:31.343Z,11.17
2019-04-19T19:25:10.252Z,11.08
2019-04-19T19:27:26.882Z,10.98
2019-04-19T19:29:52.773Z,10.86
2019-04-19T19:32:22.488Z,10.75
2019-04-19T19:34:54.630Z,10.64
2019-04-19T19:37:26.757Z,10.52
2019-04-19T19:40:04.204Z,10.42
2019-04-19T19:42:56.223Z,10.30
2019-04-19T19:45:14.014Z,10.17
2019-04-19T19:48:17.546Z,10.04
2019-04-19T19:50:35.936Z,9.90
2019-04-19T19:53:07.538Z,9.74
2019-04-19T19:55:31.256Z,9.65
2019-04-19T19:57:56.070Z,9.52
2019-04-19T20:00:30.842Z,9.44
2019-04-19T20:03:01.543Z,9.36
2019-04-19T20:05:26.446Z,9.29
2019-04-19T20:07:51.755Z,9.22
2019-04-19T20:10:21.161Z,9.17
2019-04-19T20:12:55.710Z,9.11
2019-04-19T20:15:21.591Z,9.08
2019-04-19T20:17:56.334Z,9.03
2019-04-19T20:20:28.267Z,8.97
2019-04-19T20:22:52.458Z,8.92
2019-04-19T20:25:32.549Z,8.83
2019-04-19T20:27:54.975Z,8.76
2019-04-19T20:30:21.795Z,8.68
2019-04-19T20:32:54.511Z,8.60
2019-04-19T20:35:24.387Z,8.54
2019-04-19T20:37:55.513Z,8.48
2019-04-19T20:40:25.800Z,8.42
2019-04-19T20:43:16.254Z,8.38
2019-04-19T20:45:33.874Z,8.33
2019-04-19T20:47:56.400Z,8.28
2019-04-19T20:50:37.380Z,8.22
2019-04-19T20:53:14.667Z,8.17
2019-04-19T20:55:55.408Z,8.11
2019-04-19T20:58:27.746Z,8.06
2019-04-19T21:00:50.491Z,8.01
2019-04-19T21:03:24.963Z,7.97
2019-04-19T21:05:50.901Z,7.94
2019-04-19T21:08:22.799Z,7.89
2019-04-19T21:10:56.883Z,7.86
2019-04-19T21:13:21.315Z,7.81
2019-04-19T21:15:50.086Z,7.77
2019-04-19T21:18:23.513Z,7.73
2019-04-19T21:20:50.462Z,7.65
2019-04-19T21:23:25.512Z,7.58
2019-04-19T21:25:57.061Z,7.53
2019-04-19T21:28:24.159Z,7.49
2019-04-19T21:30:55.805Z,7.44
2019-04-19T21:33:22.531Z,7.41
2019-04-19T21:35:57.239Z,7.35
2019-04-19T21:38:24.776Z,7.32
2019-04-19T21:40:53.110Z,7.28
2019-04-19T21:43:29.592Z,7.23
2019-04-19T21:45:54.836Z,7.19
2019-04-19T21:48:26.855Z,7.14
2019-04-19T21:50:54.139Z,7.08
2019-04-19T21:53:22.858Z,7.02
2019-04-19T21:55:59.765Z,6.96
2019-04-19T21:58:24.620Z,6.92
2019-04-19T22:01:04.685Z,6.86
2019-04-19T22:03:30.723Z,6.80
2019-04-19T22:06:01.909Z,6.74
2019-04-19T22:08:34.269Z,6.61
2019-04-19T22:11:00.532Z,6.61
2019-04-19T22:13:32.019Z,6.54
2019-04-19T22:16:01.940Z,6.49
2019-04-19T22:18:34.431Z,6.44
2019-04-19T22:21:03.196Z,6.40
2019-04-19T22:23:30.877Z,6.37
2019-04-19T22:26:13.050Z,6.26
2019-04-19T22:28:29.982Z,6.26
2019-04-19T22:31:01.122Z,6.18
2019-04-19T22:33:30.247Z,6.06
2019-04-19T22:36:01.552Z,6.06
2019-04-19T22:38:29.650Z,6.00
2019-04-19T22:41:05.517Z,5.85
2019-04-19T22:43:28.888Z,5.78
2019-04-19T22:46:03.222Z,5.78
2019-04-19T22:48:29.321Z,5.62
2019-04-19T22:51:03.776Z,5.62
2019-04-19T22:53:33.723Z,5.56
2019-04-19T22:56:08.082Z,5.53
2019-04-19T22:58:31.693Z,5.48
2019-04-19T23:00:59.143Z,5.40
2019-04-19T23:03:33.639Z,5.33
2019-04-19T23:05:59.586Z,5.26
2019-04-19T23:08:33.058Z,5.20
2019-04-19T23:11:02.718Z,5.04
2019-04-19T23:13:29.488Z,5.04
2019-04-19T23:16:04.004Z,5.01
2019-04-19T23:18:29.392Z,4.96
2019-04-19T23:21:05.446Z,4.90
2019-04-19T23:23:31.708Z,4.88
2019-04-19T23:26:13.110Z,4.86
2019-04-19T23:28:34.029Z,4.84
2019-04-19T23:31:05.424Z,4.79
2019-04-19T23:33:30.264Z,4.75
2019-04-19T23:35:59.639Z,4.71
2019-04-19T23:38:30.793Z,4.66
2019-04-19T23:40:59.306Z,4.60
2019-04-19T23:43:34.203Z,4.55
2019-04-19T23:45:58.343Z,4.51
2019-04-19T23:48:31.501Z,4.48
2019-04-19T23:50:58.084Z,4.42
2019-04-19T23:53:30.768Z,4.38
2019-04-19T23:55:56.810Z,4.35
2019-04-19T23:58:29.425Z,4.29
